EST,Max TemperatureF,Mean TemperatureF,Min TemperatureF,Max Dew PointF,MeanDew PointF,Min DewpointF,Max Humidity, Mean Humidity, Min Humidity, Max Sea Level PressureIn, Mean Sea Level PressureIn, Min Sea Level PressureIn, Max VisibilityMiles, Mean VisibilityMiles, Min VisibilityMiles, Max Wind SpeedMPH, Mean Wind SpeedMPH, Max Gust SpeedMPH,PrecipitationIn, CloudCover, Events, WindDirDegrees
2013-12-1,50,40,31,34,29,25,93,72,50,30.18,30.07,29.96,10,10,7,13,5,,0.00,4,,183
2013-12-2,45,38,32,36,33,30,100,87,66,29.97,29.89,29.83,10,7,3,9,3,,0.05,7,Rain,35
2013-12-3,50,41,32,46,38,32,100,92,82,29.92,29.85,29.82,10,4,1,7,4,,0.00,5,,89
2013-12-4,61,50,39,55,48,39,100,87,77,29.90,29.82,29.74,10,9,4,15,5,18,0.00,5,,123
2013-12-5,62,46,31,57,42,27,94,84,69,30.18,29.95,29.75,10,10,5,16,11,22,0.05,6,Rain-Snow,281
2013-12-6,32,29,26,28,25,22,93,89,86,30.42,30.24,30.13,10,4,1,15,9,20,0.51,8,Rain-Snow,341
2013-12-7,26,20,14,23,15,10,90,77,64,30.64,30.56,30.42,10,10,2,12,6,,0.00,3,,346
2013-12-8,31,22,15,30,22,11,100,87,72,30.56,30.23,30.00,10,4,1,13,8,,0.00,7,Snow,90
2013-12-9,32,28,23,32,24,15,100,82,69,30.25,30.12,29.97,10,9,3,17,11,23,0.00,7,Rain-Snow,239
2013-12-10,26,22,17,18,14,9,93,78,49,30.37,30.19,30.13,10,6,1,24,8,28,0.05,6,Snow,265
2013-12-11,32,21,10,20,14,7,83,73,59,30.53,30.40,30.30,10,10,6,16,9,,0.00,4,Snow,248
2013-12-12,20,12,3,9,3,-2,84,64,42,30.58,30.48,30.31,10,10,10,15,8,,0.00,1,,230
2013-12-13,34,24,15,32,20,5,100,73,53,30.35,30.24,30.16,10,7,1,13,7,,0.03,4,Snow,178
2013-12-14,35,30,26,34,32,25,100,95,87,30.19,29.89,29.70,10,3,1,14,6,20,0.42,8,Rain-Snow,103
2013-12-15,27,24,22,25,19,12,93,79,63,30.14,30.01,29.86,10,10,5,23,12,32,0.00,8,Snow,258
2013-12-16,28,23,19,27,20,16,100,86,74,30.18,30.10,29.97,10,4,1,13,6,,0.03,8,Snow,72
2013-12-17,32,28,24,30,24,21,94,86,80,30.16,30.06,29.96,10,7,1,15,7,,0.00,7,Snow,251
2013-12-18,33,26,20,22,17,14,87,71,52,30.29,30.19,30.06,10,10,10,18,11,,0.00,2,,218
2013-12-19,46,39,32,37,30,20,77,66,58,30.09,30.04,29.97,10,10,10,20,13,,0.00,2,,196
2013-12-20,59,52,45,56,47,36,94,81,62,29.96,29.87,29.82,10,10,8,18,13,26,0.00,8,Rain,192
2013-12-21,66,58,49,63,57,48,100,94,88,29.82,29.68,29.46,10,7,1,31,12,40,2.22,7,Rain-Thunderstorm,187
2013-12-22,61,50,38,61,48,34,100,87,68,30.05,29.78,29.52,10,8,2,30,14,38,0.56,7,Rain,229
2013-12-23,37,32,26,33,25,16,87,75,63,30.40,30.22,30.03,10,10,10,17,11,22,0.01,8,Rain-Snow,269
2013-12-24,26,19,12,19,10,4,86,74,62,30.60,30.48,30.33,10,9,4,14,9,21,0.00,5,Snow,295
2013-12-25,32,24,15,23,14,10,79,63,44,30.54,30.35,30.21,10,10,10,14,8,,0.00,7,,177
2013-12-26,36,31,26,26,21,17,79,66,45,30.37,30.28,30.15,10,10,10,22,13,29,0.00,4,Snow,231
2013-12-27,46,36,27,28,25,21,79,64,49,30.43,30.35,30.28,10,10,10,15,10,,0.00,2,,212
2013-12-28,52,42,33,31,29,26,78,60,41,30.26,30.19,30.03,10,10,10,16,9,,0.00,1,,198
2013-12-29,42,37,31,39,35,24,100,86,57,30.04,29.87,29.77,10,8,2,18,7,24,0.13,7,Rain,231
2013-12-30,32,28,21,25,19,14,86,76,66,30.27,30.19,30.01,10,9,3,13,9,,0.00,8,Snow,307
2013-12-31,29,25,21,19,15,12,77,66,55,30.39,30.29,30.14,10,9,3,17,12,24,0.00,6,Snow,244